Bow Kiso — 3EPY3 — position and weather

sailwx.info

Track history (hours):
 
Tides and Currents Weather Stations Pressure Air Temp Water Temp Dewpoint Dewpoint Depression Visibility Wind Speed Wind Dir Waves Ship Positions

Bow Kiso

Last reported at 2018-Feb-23 10:31 UTC. Time now 2018-Feb-24 00:38 UTC.
Position N 27°49' W 094°25'.

Length 170 m; draft 7.6 m.

Type: Ship. MMSI: 356958000.

Date/timePositionNaut miles runAvg speedWind from/ knotsBaromVisibWave heightAir tempDewpointWater temp
2018-Feb-23 10:31N 27°49' W 094°25'013.0
2018-Feb-23 10:30N 27°49' W 094°25'1412.3
2018-Feb-23 09:24N 28°02' W 094°25'1911.7
2018-Feb-23 07:46N 28°21' W 094°26'412.0
2018-Feb-23 07:29N 28°24' W 094°24'611.9
2018-Feb-23 06:58N 28°30' W 094°25'613.1
2018-Feb-23 06:28N 28°37' W 094°25'713.5
2018-Feb-23 05:59N 28°43' W 094°25'613.5
2018-Feb-23 05:30N 28°50' W 094°25'713.5
2018-Feb-23 05:00N 28°57' W 094°25'713.5
2018-Feb-23 04:30N 29°03' W 094°25'612.3
2018-Feb-23 04:00N 29°09' W 094°27'612.8
2018-Feb-23 03:30N 29°13' W 094°32'612.3
2018-Feb-23 03:00N 29°18' W 094°38'810.4
2018-Feb-23 02:15N 29°21' W 094°46'1011.7
2018-Feb-23 01:25N 29°29' W 094°52'512.3
2018-Feb-23 01:00N 29°33' W 094°55'612.2
2018-Feb-23 00:30N 29°39' W 094°58'510.6
2018-Feb-23 00:00N 29°43' W 095°01'4 7.7
2018-Feb-22 23:26N 29°45' W 095°06'1 0.9
2018-Feb-22 22:42N 29°45' W 095°06'0 0.0
2018-Feb-22 22:30N 29°45' W 095°06'0 0.0
2018-Feb-21 09:30N 29°45' W 095°06'0 0.4
2018-Feb-21 09:00N 29°45' W 095°06'2 4.2
2018-Feb-21 08:30N 29°44' W 095°04'4 7.0
2018-Feb-21 08:00N 29°42' W 095°01'510.2
2018-Feb-21 07:30N 29°38' W 094°58'611.3
2018-Feb-21 07:00N 29°33' W 094°54'611.4
2018-Feb-21 06:30N 29°28' W 094°51'2010.4
2018-Feb-21 04:36N 29°16' W 094°33'2 8.6
2018-Feb-21 04:22N 29°15' W 094°35'3 8.5
2018-Feb-21 04:00N 29°14' W 094°38'2 4.4
2018-Feb-21 03:27N 29°14' W 094°41'0 0.7
2018-Feb-21 02:54N 29°14' W 094°42'0 0.0
2018-Feb-21 02:30N 29°14' W 094°42'0 0.0
2018-Feb-20 23:21N 29°14' W 094°42'0 0.0
2018-Feb-20 22:57N 29°14' W 094°42'0 0.0
2018-Feb-20 22:27N 29°14' W 094°42'0 0.0
2018-Feb-20 21:45N 29°14' W 094°42'0 0.0
2018-Feb-20 21:31N 29°14' W 094°42'0 0.0
2018-Feb-20 20:04N 29°14' W 094°42'0 0.1
2018-Feb-20 20:01N 29°14' W 094°42'0 0.0
2018-Feb-20 17:21N 29°14' W 094°42'0 0.0
2018-Feb-20 16:45N 29°14' W 094°42'0 0.0
2018-Feb-20 14:18N 29°14' W 094°42'0 0.0
2018-Feb-20 13:54N 29°14' W 094°42'0 0.0
2018-Feb-20 13:30N 29°14' W 094°42'0 0.0
2018-Feb-20 13:00N 29°14' W 094°42'0 0.0
2018-Feb-20 12:27N 29°14' W 094°42'0 0.0
2018-Feb-20 12:01N 29°14' W 094°42'0 0.0
2018-Feb-20 11:21N 29°14' W 094°42'0 0.0
2018-Feb-20 10:57N 29°14' W 094°42'0 0.0
2018-Feb-20 10:30N 29°14' W 094°42'0 0.0
2018-Feb-20 09:33N 29°14' W 094°42'0 0.1
2018-Feb-20 09:28N 29°14' W 094°42'0 0.0
2018-Feb-20 09:00N 29°14' W 094°42'0 0.0
2018-Feb-20 08:21N 29°14' W 094°42'0 0.0
2018-Feb-20 07:48N 29°14' W 094°42'0 0.0
2018-Feb-20 07:30N 29°14' W 094°42'0 0.0
2018-Feb-20 07:00N 29°14' W 094°42'0 0.0
2018-Feb-20 06:27N 29°14' W 094°42'0 0.0
2018-Feb-20 05:00N 29°14' W 094°42'0 0.0
2018-Feb-20 04:00N 29°14' W 094°42'0 0.0
2018-Feb-20 03:30N 29°14' W 094°42'0 0.0
2018-Feb-19 20:30N 29°14' W 094°42'0 0.0
2018-Feb-19 19:42N 29°14' W 094°42'0 0.0
2018-Feb-19 19:30N 29°14' W 094°42'0 0.0
2018-Feb-19 18:57N 29°14' W 094°42'0 0.0
2018-Feb-19 18:22N 29°14' W 094°42'0 0.0
2018-Feb-19 18:00N 29°14' W 094°42'0 0.0
2018-Feb-19 17:27N 29°14' W 094°42'0 0.0
2018-Feb-19 17:00N 29°14' W 094°42'0 0.0
2018-Feb-19 16:30N 29°14' W 094°42'0 0.0
2018-Feb-19 15:57N 29°14' W 094°42'0 0.0
2018-Feb-19 15:27N 29°14' W 094°42'0 0.0
2018-Feb-19 15:00N 29°14' W 094°42'0 0.0
2018-Feb-19 14:27N 29°14' W 094°42'0 0.0
2018-Feb-19 14:00N 29°14' W 094°42'0 0.0
2018-Feb-19 13:30N 29°14' W 094°42'0 0.0
2018-Feb-19 13:00N 29°14' W 094°42'0 0.0
2018-Feb-19 12:31N 29°14' W 094°42'0 0.0
2018-Feb-19 12:00N 29°14' W 094°42'0 0.0
2018-Feb-19 11:27N 29°14' W 094°42'0 0.0
2018-Feb-19 10:54N 29°14' W 094°42'0 0.0
2018-Feb-19 10:30N 29°14' W 094°42'0 0.0
2018-Feb-19 10:00N 29°14' W 094°42'0 0.0
2018-Feb-19 09:30N 29°14' W 094°42'0 0.0
2018-Feb-19 09:00N 29°14' W 094°42'0 0.0
2018-Feb-19 08:30N 29°14' W 094°42'0 0.0
2018-Feb-19 08:00N 29°14' W 094°42'0 0.0
2018-Feb-19 07:30N 29°14' W 094°42'0 0.0
2018-Feb-19 07:00N 29°14' W 094°42'0 0.0
2018-Feb-19 06:31N 29°14' W 094°42'0 0.0
2018-Feb-19 06:00N 29°14' W 094°42'0 0.0
2018-Feb-19 05:30N 29°14' W 094°42'0 0.0
2018-Feb-19 05:00N 29°14' W 094°42'0 0.0
2018-Feb-19 04:30N 29°14' W 094°42'0 0.0
2018-Feb-19 04:00N 29°14' W 094°42'0 0.0
2018-Feb-19 03:28N 29°14' W 094°42'0 0.0
2018-Feb-19 02:57N 29°14' W 094°42'0 0.0
2018-Feb-19 02:31N 29°14' W 094°42'0 0.0
2018-Feb-19 01:51N 29°14' W 094°42'0 0.0
2018-Feb-18 23:48N 29°14' W 094°42'0 0.0
2018-Feb-18 23:30N 29°14' W 094°42'0 0.0
2018-Feb-18 22:57N 29°14' W 094°42'0 0.0
2018-Feb-18 22:06N 29°14' W 094°42'0 0.0
2018-Feb-18 21:21N 29°14' W 094°42'0 0.0
2018-Feb-18 19:06N 29°14' W 094°42'0 0.0
2018-Feb-18 19:00N 29°14' W 094°42'0 0.0
2018-Feb-18 18:30N 29°14' W 094°42'0 0.0
2018-Feb-18 17:51N 29°14' W 094°42'0 0.0
2018-Feb-18 17:30N 29°14' W 094°42'0 0.0
2018-Feb-18 16:21N 29°14' W 094°42'0 0.0
2018-Feb-18 16:01N 29°14' W 094°42'0 0.0
2018-Feb-18 15:30N 29°14' W 094°42'0 0.0
2018-Feb-18 14:57N 29°14' W 094°42'0 0.0
2018-Feb-18 13:51N 29°14' W 094°42'0 0.0
2018-Feb-18 13:12N 29°14' W 094°42'0 0.0
2018-Feb-18 10:39N 29°14' W 094°42'0 0.0
2018-Feb-18 08:54N 29°14' W 094°42'0 0.0
2018-Feb-18 08:24N 29°14' W 094°42'0 0.0
2018-Feb-18 07:57N 29°14' W 094°42'0 0.0
2018-Feb-18 07:30N 29°14' W 094°42'0 0.0
2018-Feb-18 06:55N 29°14' W 094°42'0 0.0
2018-Feb-18 06:31N 29°14' W 094°42'0 0.0
2018-Feb-18 05:45N 29°14' W 094°42'0 0.0
2018-Feb-18 05:24N 29°14' W 094°42'0 0.0
2018-Feb-18 03:39N 29°14' W 094°42'0 0.0
2018-Feb-18 03:27N 29°14' W 094°42'0 0.0
2018-Feb-18 02:58N 29°14' W 094°42'0 0.0
2018-Feb-18 02:30N 29°14' W 094°42'0 0.0
2018-Feb-18 01:55N 29°14' W 094°42'0 0.0
2018-Feb-18 01:30N 29°14' W 094°42'0 0.0
2018-Feb-18 01:00N 29°14' W 094°42'0 0.0
2018-Feb-18 00:15N 29°14' W 094°42'0 0.0
2018-Feb-17 23:48N 29°14' W 094°42'0 0.0
2018-Feb-17 22:42N 29°14' W 094°42'0 0.0
2018-Feb-17 22:27N 29°14' W 094°42'0 0.0
2018-Feb-17 21:57N 29°14' W 094°42'0 0.0
2018-Feb-17 21:28N 29°14' W 094°42'0 0.0
2018-Feb-17 21:01N 29°14' W 094°42'0 0.0
2018-Feb-17 12:10N 29°14' W 094°42'0 0.0
2018-Feb-17 11:45N 29°14' W 094°42'0 0.0
2018-Feb-17 09:12N 29°14' W 094°42'0 0.0
2018-Feb-17 08:54N 29°14' W 094°42'0 0.0
2018-Feb-17 08:30N 29°14' W 094°42'0 0.0
2018-Feb-17 07:42N 29°14' W 094°42'0 0.0
2018-Feb-17 07:30N 29°14' W 094°42'0 0.0
2018-Feb-17 06:43N 29°14' W 094°42'0 0.0
2018-Feb-17 06:30N 29°14' W 094°42'0 0.0
2018-Feb-17 05:58N 29°14' W 094°42'0 0.0
2018-Feb-17 05:30N 29°14' W 094°42'0 0.0
2018-Feb-17 05:00N 29°14' W 094°42'0 0.0
2018-Feb-17 04:30N 29°14' W 094°42'0 0.0
2018-Feb-17 03:51N 29°14' W 094°42'0 0.0
2018-Feb-17 03:31N 29°14' W 094°42'0 0.0
2018-Feb-17 03:00N 29°14' W 094°42'0 0.0
2018-Feb-17 02:27N 29°14' W 094°42'0 0.0
2018-Feb-17 02:00N 29°14' W 094°42'0 0.0
2018-Feb-17 01:27N 29°14' W 094°42'0 0.0
2018-Feb-17 01:00N 29°14' W 094°42'0 0.0
2018-Feb-17 00:27N 29°14' W 094°42'0 0.0
2018-Feb-17 00:00N 29°14' W 094°42'0 0.0
2018-Feb-16 23:30N 29°14' W 094°42'0 0.0
2018-Feb-16 22:45N 29°14' W 094°42'0 0.0
2018-Feb-16 22:30N 29°14' W 094°42'0 0.0
2018-Feb-16 22:00N 29°14' W 094°42'0 0.0
2018-Feb-16 21:22N 29°14' W 094°42'0 0.0
2018-Feb-16 16:18N 29°14' W 094°42'0 0.0
2018-Feb-16 09:54N 29°14' W 094°42'0 0.0
2018-Feb-16 09:18N 29°14' W 094°42'0 0.0
2018-Feb-16 08:57N 29°14' W 094°42'0 0.0
2018-Feb-16 08:30N 29°14' W 094°42'0 0.0
2018-Feb-16 07:57N 29°14' W 094°42'0 0.0
2018-Feb-16 07:28N 29°14' W 094°42'0 0.0
2018-Feb-16 06:51N 29°14' W 094°42'0 0.0
2018-Feb-16 06:24N 29°14' W 094°42'0 0.0
2018-Feb-16 05:48N 29°14' W 094°42'0 0.0
2018-Feb-16 05:19N 29°14' W 094°42'0 0.0
2018-Feb-16 04:48N 29°14' W 094°42'0 0.0
2018-Feb-16 04:30N 29°14' W 094°42'0 0.0
2018-Feb-16 03:55N 29°14' W 094°42'0 0.0
2018-Feb-16 03:30N 29°14' W 094°42'0 0.0
2018-Feb-16 03:00N 29°14' W 094°42'0 0.0
2018-Feb-16 02:30N 29°14' W 094°42'0 0.0
2018-Feb-16 01:57N 29°14' W 094°42'0 0.0
2018-Feb-16 01:30N 29°14' W 094°42'0 0.0
2018-Feb-16 00:45N 29°14' W 094°42'0 0.0
2018-Feb-16 00:30N 29°14' W 094°42'0 0.0
2018-Feb-16 00:00N 29°14' W 094°42'0 0.0
2018-Feb-15 23:12N 29°14' W 094°42'0 0.0
2018-Feb-15 23:00N 29°14' W 094°42'0 0.0
2018-Feb-15 22:28N 29°14' W 094°42'0 0.0
2018-Feb-15 21:03N 29°14' W 094°42'0 0.0
2018-Feb-15 20:33N 29°14' W 094°42'0 0.0
2018-Feb-15 20:03N 29°14' W 094°42'0 0.1
2018-Feb-15 20:00N 29°14' W 094°42'0 0.0
2018-Feb-15 19:21N 29°14' W 094°42'0 0.0
2018-Feb-15 15:42N 29°14' W 094°42'0 0.0
2018-Feb-15 14:30N 29°14' W 094°42'0 0.0
2018-Feb-15 12:31N 29°14' W 094°42'0 0.0
2018-Feb-15 11:37N 29°14' W 094°42'0 0.0
2018-Feb-15 11:30N 29°14' W 094°42'0 0.0
2018-Feb-15 09:33N 29°14' W 094°42'0 0.0
2018-Feb-15 09:31N 29°14' W 094°42'0 0.0
2018-Feb-15 09:00N 29°14' W 094°42'0 0.0
2018-Feb-15 08:30N 29°14' W 094°42'0 0.0
2018-Feb-15 08:00N 29°14' W 094°42'0 0.0
2018-Feb-15 07:12N 29°14' W 094°42'0 0.0
2018-Feb-15 06:57N 29°14' W 094°42'0 0.0
2018-Feb-15 06:30N 29°14' W 094°42'0 0.0
2018-Feb-15 06:00N 29°14' W 094°42'0 0.0
2018-Feb-15 05:24N 29°14' W 094°42'0 0.0
2018-Feb-15 04:57N 29°14' W 094°42'0 0.0
2018-Feb-15 04:27N 29°14' W 094°42'0 0.0
2018-Feb-15 04:00N 29°14' W 094°42'0 0.0
2018-Feb-15 03:30N 29°14' W 094°42'0 0.0
2018-Feb-15 03:00N 29°14' W 094°42'0 0.0
2018-Feb-15 02:30N 29°14' W 094°42'0 0.0
2018-Feb-15 02:00N 29°14' W 094°42'0 0.0
2018-Feb-14 23:57N 29°14' W 094°42'0 0.0
2018-Feb-14 23:27N 29°14' W 094°42'0 0.0
2018-Feb-14 23:00N 29°14' W 094°42'0 0.0
2018-Feb-14 22:30N 29°14' W 094°42'0 0.0
2018-Feb-14 21:45N 29°14' W 094°42'0 0.0
2018-Feb-14 21:15N 29°14' W 094°42'0 0.0
2018-Feb-14 20:46N 29°14' W 094°42'0 0.0
2018-Feb-14 20:24N 29°14' W 094°42'0 0.0
2018-Feb-14 19:54N 29°14' W 094°42'0 0.0
2018-Feb-14 19:24N 29°14' W 094°42'0 0.0
2018-Feb-14 19:00N 29°14' W 094°42'0 0.0
2018-Feb-14 18:30N 29°14' W 094°42'0 0.0
2018-Feb-14 18:01N 29°14' W 094°42'0 0.0
2018-Feb-14 17:15N 29°14' W 094°42'0 0.0
2018-Feb-14 17:01N 29°14' W 094°42'0 0.0
2018-Feb-14 16:27N 29°14' W 094°42'0 0.0
2018-Feb-14 16:00N 29°14' W 094°42'0 0.0
2018-Feb-14 15:30N 29°14' W 094°42'0 0.0
2018-Feb-14 15:01N 29°14' W 094°42'0 0.0
2018-Feb-14 14:00N 29°14' W 094°42'0 0.0
2018-Feb-14 13:24N 29°14' W 094°42'0 0.0
2018-Feb-14 13:01N 29°14' W 094°42'0 0.0
2018-Feb-14 12:24N 29°14' W 094°42'0 0.0
2018-Feb-14 11:57N 29°14' W 094°42'0 0.0
2018-Feb-14 11:27N 29°14' W 094°42'0 0.0
2018-Feb-14 10:00N 29°14' W 094°42'0 0.0
2018-Feb-14 05:39N 29°14' W 094°42'0 0.0
2018-Feb-14 05:09N 29°14' W 094°42'0 0.0
2018-Feb-14 04:58N 29°14' W 094°42'0 0.0
2018-Feb-14 04:30N 29°14' W 094°42'0 0.0
2018-Feb-14 03:39N 29°14' W 094°42'  
Track history (hours):
 
Tides and Currents Weather Stations Pressure Air Temp Water Temp Dewpoint Dewpoint Depression Visibility Wind Speed Wind Dir Waves Ship Positions

Bow Kiso

Last reported at 2018-Feb-23 10:31 UTC. Time now 2018-Feb-24 00:38 UTC.
Position N 27°49' W 094°25'.

Length 170 m; draft 7.6 m.

Type: Ship. MMSI: 356958000.

Date/timePositionNaut miles runAvg speedWind from/ knotsBaromVisibWave heightAir tempDewpointWater temp
2018-Feb-23 10:31N 27°49' W 094°25'013.0
2018-Feb-23 10:30N 27°49' W 094°25'1412.3
2018-Feb-23 09:24N 28°02' W 094°25'1911.7
2018-Feb-23 07:46N 28°21' W 094°26'412.0
2018-Feb-23 07:29N 28°24' W 094°24'611.9
2018-Feb-23 06:58N 28°30' W 094°25'613.1
2018-Feb-23 06:28N 28°37' W 094°25'713.5
2018-Feb-23 05:59N 28°43' W 094°25'613.5
2018-Feb-23 05:30N 28°50' W 094°25'713.5
2018-Feb-23 05:00N 28°57' W 094°25'713.5
2018-Feb-23 04:30N 29°03' W 094°25'612.3
2018-Feb-23 04:00N 29°09' W 094°27'612.8
2018-Feb-23 03:30N 29°13' W 094°32'612.3
2018-Feb-23 03:00N 29°18' W 094°38'810.4
2018-Feb-23 02:15N 29°21' W 094°46'1011.7
2018-Feb-23 01:25N 29°29' W 094°52'512.3
2018-Feb-23 01:00N 29°33' W 094°55'612.2
2018-Feb-23 00:30N 29°39' W 094°58'510.6
2018-Feb-23 00:00N 29°43' W 095°01'4 7.7
2018-Feb-22 23:26N 29°45' W 095°06'1 0.9
2018-Feb-22 22:42N 29°45' W 095°06'0 0.0
2018-Feb-22 22:30N 29°45' W 095°06'0 0.0
2018-Feb-21 09:30N 29°45' W 095°06'0 0.4
2018-Feb-21 09:00N 29°45' W 095°06'2 4.2
2018-Feb-21 08:30N 29°44' W 095°04'4 7.0
2018-Feb-21 08:00N 29°42' W 095°01'510.2
2018-Feb-21 07:30N 29°38' W 094°58'611.3
2018-Feb-21 07:00N 29°33' W 094°54'611.4
2018-Feb-21 06:30N 29°28' W 094°51'2010.4
2018-Feb-21 04:36N 29°16' W 094°33'2 8.6
2018-Feb-21 04:22N 29°15' W 094°35'3 8.5
2018-Feb-21 04:00N 29°14' W 094°38'2 4.4
2018-Feb-21 03:27N 29°14' W 094°41'0 0.7
2018-Feb-21 02:54N 29°14' W 094°42'0 0.0
2018-Feb-21 02:30N 29°14' W 094°42'0 0.0
2018-Feb-20 23:21N 29°14' W 094°42'0 0.0
2018-Feb-20 22:57N 29°14' W 094°42'0 0.0
2018-Feb-20 22:27N 29°14' W 094°42'0 0.0
2018-Feb-20 21:45N 29°14' W 094°42'0 0.0
2018-Feb-20 21:31N 29°14' W 094°42'0 0.0
2018-Feb-20 20:04N 29°14' W 094°42'0 0.1
2018-Feb-20 20:01N 29°14' W 094°42'0 0.0
2018-Feb-20 17:21N 29°14' W 094°42'0 0.0
2018-Feb-20 16:45N 29°14' W 094°42'0 0.0
2018-Feb-20 14:18N 29°14' W 094°42'0 0.0
2018-Feb-20 13:54N 29°14' W 094°42'0 0.0
2018-Feb-20 13:30N 29°14' W 094°42'0 0.0
2018-Feb-20 13:00N 29°14' W 094°42'0 0.0
2018-Feb-20 12:27N 29°14' W 094°42'0 0.0
2018-Feb-20 12:01N 29°14' W 094°42'0 0.0
2018-Feb-20 11:21N 29°14' W 094°42'0 0.0
2018-Feb-20 10:57N 29°14' W 094°42'0 0.0
2018-Feb-20 10:30N 29°14' W 094°42'0 0.0
2018-Feb-20 09:33N 29°14' W 094°42'0 0.1
2018-Feb-20 09:28N 29°14' W 094°42'0 0.0
2018-Feb-20 09:00N 29°14' W 094°42'0 0.0
2018-Feb-20 08:21N 29°14' W 094°42'0 0.0
2018-Feb-20 07:48N 29°14' W 094°42'0 0.0
2018-Feb-20 07:30N 29°14' W 094°42'0 0.0
2018-Feb-20 07:00N 29°14' W 094°42'0 0.0
2018-Feb-20 06:27N 29°14' W 094°42'0 0.0
2018-Feb-20 05:00N 29°14' W 094°42'0 0.0
2018-Feb-20 04:00N 29°14' W 094°42'0 0.0
2018-Feb-20 03:30N 29°14' W 094°42'0 0.0
2018-Feb-19 20:30N 29°14' W 094°42'0 0.0
2018-Feb-19 19:42N 29°14' W 094°42'0 0.0
2018-Feb-19 19:30N 29°14' W 094°42'0 0.0
2018-Feb-19 18:57N 29°14' W 094°42'0 0.0
2018-Feb-19 18:22N 29°14' W 094°42'0 0.0
2018-Feb-19 18:00N 29°14' W 094°42'0 0.0
2018-Feb-19 17:27N 29°14' W 094°42'0 0.0
2018-Feb-19 17:00N 29°14' W 094°42'0 0.0
2018-Feb-19 16:30N 29°14' W 094°42'0 0.0
2018-Feb-19 15:57N 29°14' W 094°42'0 0.0
2018-Feb-19 15:27N 29°14' W 094°42'0 0.0
2018-Feb-19 15:00N 29°14' W 094°42'0 0.0
2018-Feb-19 14:27N 29°14' W 094°42'0 0.0
2018-Feb-19 14:00N 29°14' W 094°42'0 0.0
2018-Feb-19 13:30N 29°14' W 094°42'0 0.0
2018-Feb-19 13:00N 29°14' W 094°42'0 0.0
2018-Feb-19 12:31N 29°14' W 094°42'0 0.0
2018-Feb-19 12:00N 29°14' W 094°42'0 0.0
2018-Feb-19 11:27N 29°14' W 094°42'0 0.0
2018-Feb-19 10:54N 29°14' W 094°42'0 0.0
2018-Feb-19 10:30N 29°14' W 094°42'0 0.0
2018-Feb-19 10:00N 29°14' W 094°42'0 0.0
2018-Feb-19 09:30N 29°14' W 094°42'0 0.0
2018-Feb-19 09:00N 29°14' W 094°42'0 0.0
2018-Feb-19 08:30N 29°14' W 094°42'0 0.0
2018-Feb-19 08:00N 29°14' W 094°42'0 0.0
2018-Feb-19 07:30N 29°14' W 094°42'0 0.0
2018-Feb-19 07:00N 29°14' W 094°42'0 0.0
2018-Feb-19 06:31N 29°14' W 094°42'0 0.0
2018-Feb-19 06:00N 29°14' W 094°42'0 0.0
2018-Feb-19 05:30N 29°14' W 094°42'0 0.0
2018-Feb-19 05:00N 29°14' W 094°42'0 0.0
2018-Feb-19 04:30N 29°14' W 094°42'0 0.0
2018-Feb-19 04:00N 29°14' W 094°42'0 0.0
2018-Feb-19 03:28N 29°14' W 094°42'0 0.0
2018-Feb-19 02:57N 29°14' W 094°42'0 0.0
2018-Feb-19 02:31N 29°14' W 094°42'0 0.0
2018-Feb-19 01:51N 29°14' W 094°42'0 0.0
2018-Feb-18 23:48N 29°14' W 094°42'0 0.0
2018-Feb-18 23:30N 29°14' W 094°42'0 0.0
2018-Feb-18 22:57N 29°14' W 094°42'0 0.0
2018-Feb-18 22:06N 29°14' W 094°42'0 0.0
2018-Feb-18 21:21N 29°14' W 094°42'0 0.0
2018-Feb-18 19:06N 29°14' W 094°42'0 0.0
2018-Feb-18 19:00N 29°14' W 094°42'0 0.0
2018-Feb-18 18:30N 29°14' W 094°42'0 0.0
2018-Feb-18 17:51N 29°14' W 094°42'0 0.0
2018-Feb-18 17:30N 29°14' W 094°42'0 0.0
2018-Feb-18 16:21N 29°14' W 094°42'0 0.0
2018-Feb-18 16:01N 29°14' W 094°42'0 0.0
2018-Feb-18 15:30N 29°14' W 094°42'0 0.0
2018-Feb-18 14:57N 29°14' W 094°42'0 0.0
2018-Feb-18 13:51N 29°14' W 094°42'0 0.0
2018-Feb-18 13:12N 29°14' W 094°42'0 0.0
2018-Feb-18 10:39N 29°14' W 094°42'0 0.0
2018-Feb-18 08:54N 29°14' W 094°42'0 0.0
2018-Feb-18 08:24N 29°14' W 094°42'0 0.0
2018-Feb-18 07:57N 29°14' W 094°42'0 0.0
2018-Feb-18 07:30N 29°14' W 094°42'0 0.0
2018-Feb-18 06:55N 29°14' W 094°42'0 0.0
2018-Feb-18 06:31N 29°14' W 094°42'0 0.0
2018-Feb-18 05:45N 29°14' W 094°42'0 0.0
2018-Feb-18 05:24N 29°14' W 094°42'0 0.0
2018-Feb-18 03:39N 29°14' W 094°42'0 0.0
2018-Feb-18 03:27N 29°14' W 094°42'0 0.0
2018-Feb-18 02:58N 29°14' W 094°42'0 0.0
2018-Feb-18 02:30N 29°14' W 094°42'0 0.0
2018-Feb-18 01:55N 29°14' W 094°42'0 0.0
2018-Feb-18 01:30N 29°14' W 094°42'0 0.0
2018-Feb-18 01:00N 29°14' W 094°42'0 0.0
2018-Feb-18 00:15N 29°14' W 094°42'0 0.0
2018-Feb-17 23:48N 29°14' W 094°42'0 0.0
2018-Feb-17 22:42N 29°14' W 094°42'0 0.0
2018-Feb-17 22:27N 29°14' W 094°42'0 0.0
2018-Feb-17 21:57N 29°14' W 094°42'0 0.0
2018-Feb-17 21:28N 29°14' W 094°42'0 0.0
2018-Feb-17 21:01N 29°14' W 094°42'0 0.0
2018-Feb-17 12:10N 29°14' W 094°42'0 0.0
2018-Feb-17 11:45N 29°14' W 094°42'0 0.0
2018-Feb-17 09:12N 29°14' W 094°42'0 0.0
2018-Feb-17 08:54N 29°14' W 094°42'0 0.0
2018-Feb-17 08:30N 29°14' W 094°42'0 0.0
2018-Feb-17 07:42N 29°14' W 094°42'0 0.0
2018-Feb-17 07:30N 29°14' W 094°42'0 0.0
2018-Feb-17 06:43N 29°14' W 094°42'0 0.0
2018-Feb-17 06:30N 29°14' W 094°42'0 0.0
2018-Feb-17 05:58N 29°14' W 094°42'0 0.0
2018-Feb-17 05:30N 29°14' W 094°42'0 0.0
2018-Feb-17 05:00N 29°14' W 094°42'0 0.0
2018-Feb-17 04:30N 29°14' W 094°42'0 0.0
2018-Feb-17 03:51N 29°14' W 094°42'0 0.0
2018-Feb-17 03:31N 29°14' W 094°42'0 0.0
2018-Feb-17 03:00N 29°14' W 094°42'0 0.0
2018-Feb-17 02:27N 29°14' W 094°42'0 0.0
2018-Feb-17 02:00N 29°14' W 094°42'0 0.0
2018-Feb-17 01:27N 29°14' W 094°42'0 0.0
2018-Feb-17 01:00N 29°14' W 094°42'0 0.0
2018-Feb-17 00:27N 29°14' W 094°42'0 0.0
2018-Feb-17 00:00N 29°14' W 094°42'0 0.0
2018-Feb-16 23:30N 29°14' W 094°42'0 0.0
2018-Feb-16 22:45N 29°14' W 094°42'0 0.0
2018-Feb-16 22:30N 29°14' W 094°42'0 0.0
2018-Feb-16 22:00N 29°14' W 094°42'0 0.0
2018-Feb-16 21:22N 29°14' W 094°42'0 0.0
2018-Feb-16 16:18N 29°14' W 094°42'0 0.0
2018-Feb-16 09:54N 29°14' W 094°42'0 0.0
2018-Feb-16 09:18N 29°14' W 094°42'0 0.0
2018-Feb-16 08:57N 29°14' W 094°42'0 0.0
2018-Feb-16 08:30N 29°14' W 094°42'0 0.0
2018-Feb-16 07:57N 29°14' W 094°42'0 0.0
2018-Feb-16 07:28N 29°14' W 094°42'0 0.0
2018-Feb-16 06:51N 29°14' W 094°42'0 0.0
2018-Feb-16 06:24N 29°14' W 094°42'0 0.0
2018-Feb-16 05:48N 29°14' W 094°42'0 0.0
2018-Feb-16 05:19N 29°14' W 094°42'0 0.0
2018-Feb-16 04:48N 29°14' W 094°42'0 0.0
2018-Feb-16 04:30N 29°14' W 094°42'0 0.0
2018-Feb-16 03:55N 29°14' W 094°42'0 0.0
2018-Feb-16 03:30N 29°14' W 094°42'0 0.0
2018-Feb-16 03:00N 29°14' W 094°42'0 0.0
2018-Feb-16 02:30N 29°14' W 094°42'0 0.0
2018-Feb-16 01:57N 29°14' W 094°42'0 0.0
2018-Feb-16 01:30N 29°14' W 094°42'0 0.0
2018-Feb-16 00:45N 29°14' W 094°42'0 0.0
2018-Feb-16 00:30N 29°14' W 094°42'0 0.0
2018-Feb-16 00:00N 29°14' W 094°42'0 0.0
2018-Feb-15 23:12N 29°14' W 094°42'0 0.0
2018-Feb-15 23:00N 29°14' W 094°42'0 0.0
2018-Feb-15 22:28N 29°14' W 094°42'0 0.0
2018-Feb-15 21:03N 29°14' W 094°42'0 0.0
2018-Feb-15 20:33N 29°14' W 094°42'0 0.0
2018-Feb-15 20:03N 29°14' W 094°42'0 0.1
2018-Feb-15 20:00N 29°14' W 094°42'0 0.0
2018-Feb-15 19:21N 29°14' W 094°42'0 0.0
2018-Feb-15 15:42N 29°14' W 094°42'0 0.0
2018-Feb-15 14:30N 29°14' W 094°42'0 0.0
2018-Feb-15 12:31N 29°14' W 094°42'0 0.0
2018-Feb-15 11:37N 29°14' W 094°42'0 0.0
2018-Feb-15 11:30N 29°14' W 094°42'0 0.0
2018-Feb-15 09:33N 29°14' W 094°42'0 0.0
2018-Feb-15 09:31N 29°14' W 094°42'0 0.0
2018-Feb-15 09:00N 29°14' W 094°42'0 0.0
2018-Feb-15 08:30N 29°14' W 094°42'0 0.0
2018-Feb-15 08:00N 29°14' W 094°42'0 0.0
2018-Feb-15 07:12N 29°14' W 094°42'0 0.0
2018-Feb-15 06:57N 29°14' W 094°42'0 0.0
2018-Feb-15 06:30N 29°14' W 094°42'0 0.0
2018-Feb-15 06:00N 29°14' W 094°42'0 0.0
2018-Feb-15 05:24N 29°14' W 094°42'0 0.0
2018-Feb-15 04:57N 29°14' W 094°42'0 0.0
2018-Feb-15 04:27N 29°14' W 094°42'0 0.0
2018-Feb-15 04:00N 29°14' W 094°42'0 0.0
2018-Feb-15 03:30N 29°14' W 094°42'0 0.0
2018-Feb-15 03:00N 29°14' W 094°42'0 0.0
2018-Feb-15 02:30N 29°14' W 094°42'0 0.0
2018-Feb-15 02:00N 29°14' W 094°42'0 0.0
2018-Feb-14 23:57N 29°14' W 094°42'0 0.0
2018-Feb-14 23:27N 29°14' W 094°42'0 0.0
2018-Feb-14 23:00N 29°14' W 094°42'0 0.0
2018-Feb-14 22:30N 29°14' W 094°42'0 0.0
2018-Feb-14 21:45N 29°14' W 094°42'0 0.0
2018-Feb-14 21:15N 29°14' W 094°42'0 0.0
2018-Feb-14 20:46N 29°14' W 094°42'0 0.0
2018-Feb-14 20:24N 29°14' W 094°42'0 0.0
2018-Feb-14 19:54N 29°14' W 094°42'0 0.0
2018-Feb-14 19:24N 29°14' W 094°42'0 0.0
2018-Feb-14 19:00N 29°14' W 094°42'0 0.0
2018-Feb-14 18:30N 29°14' W 094°42'0 0.0
2018-Feb-14 18:01N 29°14' W 094°42'0 0.0
2018-Feb-14 17:15N 29°14' W 094°42'0 0.0
2018-Feb-14 17:01N 29°14' W 094°42'0 0.0
2018-Feb-14 16:27N 29°14' W 094°42'0 0.0
2018-Feb-14 16:00N 29°14' W 094°42'0 0.0
2018-Feb-14 15:30N 29°14' W 094°42'0 0.0
2018-Feb-14 15:01N 29°14' W 094°42'0 0.0
2018-Feb-14 14:00N 29°14' W 094°42'0 0.0
2018-Feb-14 13:24N 29°14' W 094°42'0 0.0
2018-Feb-14 13:01N 29°14' W 094°42'0 0.0
2018-Feb-14 12:24N 29°14' W 094°42'0 0.0
2018-Feb-14 11:57N 29°14' W 094°42'0 0.0
2018-Feb-14 11:27N 29°14' W 094°42'0 0.0
2018-Feb-14 10:00N 29°14' W 094°42'0 0.0
2018-Feb-14 05:39N 29°14' W 094°42'0 0.0
2018-Feb-14 05:09N 29°14' W 094°42'0 0.0
2018-Feb-14 04:58N 29°14' W 094°42'0 0.0
2018-Feb-14 04:30N 29°14' W 094°42'0 0.0
2018-Feb-14 03:39N 29°14' W 094°42'  

Dump ship's entire track history